sensor_id;sensor_type;location;lat;lon;timestamp;P1;durP1;ratioP1;P2;durP2;ratioP2
82952;SDS011;74888;40.196;44.560;2023-12-29T00:01:19;2.20;;;0.73;;
82952;SDS011;74888;40.196;44.560;2023-12-29T00:03:45;3.30;;;1.38;;
82952;SDS011;74888;40.196;44.560;2023-12-29T00:06:10;2.33;;;0.73;;
82952;SDS011;74888;40.196;44.560;2023-12-29T00:08:37;10.20;;;1.20;;
82952;SDS011;74888;40.196;44.560;2023-12-29T00:11:04;3.05;;;0.90;;
82952;SDS011;74888;40.196;44.560;2023-12-29T00:13:29;2.17;;;0.90;;
82952;SDS011;74888;40.196;44.560;2023-12-29T00:15:56;1.88;;;0.95;;
82952;SDS011;74888;40.196;44.560;2023-12-29T00:18:22;2.55;;;1.08;;
82952;SDS011;74888;40.196;44.560;2023-12-29T00:20:50;2.53;;;1.00;;
82952;SDS011;74888;40.196;44.560;2023-12-29T00:23:17;4.80;;;1.38;;
82952;SDS011;74888;40.196;44.560;2023-12-29T00:25:42;3.20;;;0.90;;
82952;SDS011;74888;40.196;44.560;2023-12-29T00:28:10;3.95;;;1.10;;
82952;SDS011;74888;40.196;44.560;2023-12-29T00:30:38;4.22;;;1.10;;
82952;SDS011;74888;40.196;44.560;2023-12-29T00:33:05;3.33;;;1.10;;
82952;SDS011;74888;40.196;44.560;2023-12-29T00:35:33;2.53;;;0.93;;
82952;SDS011;74888;40.196;44.560;2023-12-29T00:37:58;4.13;;;1.40;;
82952;SDS011;74888;40.196;44.560;2023-12-29T00:40:24;4.32;;;1.30;;
82952;SDS011;74888;40.196;44.560;2023-12-29T00:42:55;5.28;;;1.52;;
82952;SDS011;74888;40.196;44.560;2023-12-29T00:48:00;4.47;;;1.23;;
82952;SDS011;74888;40.196;44.560;2023-12-29T00:50:25;4.60;;;1.27;;
82952;SDS011;74888;40.196;44.560;2023-12-29T00:52:51;8.50;;;1.63;;
82952;SDS011;74888;40.196;44.560;2023-12-29T00:55:17;3.65;;;1.20;;
82952;SDS011;74888;40.196;44.560;2023-12-29T00:57:44;5.68;;;1.67;;
82952;SDS011;74888;40.196;44.560;2023-12-29T01:00:12;5.53;;;1.80;;
82952;SDS011;74888;40.196;44.560;2023-12-29T01:02:39;11.05;;;2.97;;
82952;SDS011;74888;40.196;44.560;2023-12-29T01:05:14;14.23;;;3.13;;
82952;SDS011;74888;40.196;44.560;2023-12-29T01:07:42;14.10;;;3.38;;
82952;SDS011;74888;40.196;44.560;2023-12-29T01:10:08;11.15;;;2.88;;
82952;SDS011;74888;40.196;44.560;2023-12-29T01:12:34;8.20;;;2.65;;
82952;SDS011;74888;40.196;44.560;2023-12-29T01:15:01;7.97;;;2.42;;
82952;SDS011;74888;40.196;44.560;2023-12-29T01:17:27;6.25;;;2.08;;
82952;SDS011;74888;40.196;44.560;2023-12-29T01:19:55;6.50;;;2.00;;
82952;SDS011;74888;40.196;44.560;2023-12-29T01:22:22;9.20;;;2.90;;
82952;SDS011;74888;40.196;44.560;2023-12-29T01:24:48;10.35;;;2.95;;
82952;SDS011;74888;40.196;44.560;2023-12-29T01:27:14;10.73;;;2.72;;
82952;SDS011;74888;40.196;44.560;2023-12-29T01:29:41;7.97;;;2.75;;
82952;SDS011;74888;40.196;44.560;2023-12-29T01:32:07;9.52;;;2.70;;
82952;SDS011;74888;40.196;44.560;2023-12-29T01:37:14;8.50;;;2.55;;
82952;SDS011;74888;40.196;44.560;2023-12-29T01:39:40;7.43;;;3.20;;
82952;SDS011;74888;40.196;44.560;2023-12-29T01:42:06;7.80;;;3.13;;
82952;SDS011;74888;40.196;44.560;2023-12-29T01:44:32;8.52;;;3.38;;
82952;SDS011;74888;40.196;44.560;2023-12-29T01:47:02;9.52;;;2.72;;
82952;SDS011;74888;40.196;44.560;2023-12-29T01:49:33;9.82;;;2.50;;
82952;SDS011;74888;40.196;44.560;2023-12-29T01:52:00;7.28;;;2.40;;
82952;SDS011;74888;40.196;44.560;2023-12-29T01:56:59;7.40;;;2.10;;
82952;SDS011;74888;40.196;44.560;2023-12-29T01:59:29;7.15;;;2.10;;
82952;SDS011;74888;40.196;44.560;2023-12-29T02:01:56;5.75;;;2.05;;
82952;SDS011;74888;40.196;44.560;2023-12-29T02:04:23;5.45;;;1.50;;
82952;SDS011;74888;40.196;44.560;2023-12-29T02:06:50;8.93;;;2.22;;
82952;SDS011;74888;40.196;44.560;2023-12-29T02:09:19;6.75;;;2.88;;
82952;SDS011;74888;40.196;44.560;2023-12-29T02:11:47;4.60;;;1.90;;
82952;SDS011;74888;40.196;44.560;2023-12-29T02:14:25;3.35;;;1.13;;
82952;SDS011;74888;40.196;44.560;2023-12-29T02:22:10;3.03;;;1.10;;
82952;SDS011;74888;40.196;44.560;2023-12-29T02:24:37;4.07;;;1.70;;
82952;SDS011;74888;40.196;44.560;2023-12-29T02:27:23;5.50;;;1.70;;
82952;SDS011;74888;40.196;44.560;2023-12-29T02:33:04;6.07;;;2.08;;
82952;SDS011;74888;40.196;44.560;2023-12-29T02:35:41;5.50;;;1.98;;
82952;SDS011;74888;40.196;44.560;2023-12-29T02:38:09;12.43;;;2.25;;
82952;SDS011;74888;40.196;44.560;2023-12-29T02:43:05;11.02;;;2.65;;
82952;SDS011;74888;40.196;44.560;2023-12-29T02:45:33;4.75;;;2.08;;
82952;SDS011;74888;40.196;44.560;2023-12-29T02:47:58;4.43;;;1.88;;
82952;SDS011;74888;40.196;44.560;2023-12-29T02:50:24;6.22;;;1.88;;
82952;SDS011;74888;40.196;44.560;2023-12-29T02:52:53;10.13;;;4.57;;
82952;SDS011;74888;40.196;44.560;2023-12-29T02:55:19;3.42;;;1.60;;
82952;SDS011;74888;40.196;44.560;2023-12-29T03:00:16;4.78;;;2.10;;
82952;SDS011;74888;40.196;44.560;2023-12-29T03:02:43;6.85;;;2.20;;
82952;SDS011;74888;40.196;44.560;2023-12-29T03:05:09;5.20;;;1.88;;
82952;SDS011;74888;40.196;44.560;2023-12-29T03:10:10;6.15;;;1.55;;
82952;SDS011;74888;40.196;44.560;2023-12-29T03:12:35;7.15;;;1.70;;
82952;SDS011;74888;40.196;44.560;2023-12-29T03:15:02;3.72;;;1.60;;
82952;SDS011;74888;40.196;44.560;2023-12-29T03:17:28;7.88;;;1.80;;
82952;SDS011;74888;40.196;44.560;2023-12-29T03:19:56;8.38;;;2.90;;
82952;SDS011;74888;40.196;44.560;2023-12-29T03:22:21;11.15;;;3.40;;
82952;SDS011;74888;40.196;44.560;2023-12-29T03:24:48;9.52;;;4.07;;
82952;SDS011;74888;40.196;44.560;2023-12-29T03:27:13;11.32;;;4.38;;
82952;SDS011;74888;40.196;44.560;2023-12-29T03:29:40;12.05;;;4.32;;
82952;SDS011;74888;40.196;44.560;2023-12-29T03:32:07;11.07;;;4.32;;
82952;SDS011;74888;40.196;44.560;2023-12-29T03:34:33;14.05;;;5.10;;
82952;SDS011;74888;40.196;44.560;2023-12-29T03:36:58;15.35;;;5.22;;
82952;SDS011;74888;40.196;44.560;2023-12-29T03:39:24;11.88;;;4.70;;
82952;SDS011;74888;40.196;44.560;2023-12-29T03:41:51;16.33;;;5.25;;
82952;SDS011;74888;40.196;44.560;2023-12-29T03:44:16;10.73;;;4.30;;
82952;SDS011;74888;40.196;44.560;2023-12-29T03:46:43;16.50;;;8.43;;
82952;SDS011;74888;40.196;44.560;2023-12-29T03:49:18;21.50;;;8.73;;
82952;SDS011;74888;40.196;44.560;2023-12-29T03:51:45;16.65;;;7.57;;
82952;SDS011;74888;40.196;44.560;2023-12-29T03:54:11;18.75;;;9.23;;
82952;SDS011;74888;40.196;44.560;2023-12-29T03:56:38;16.65;;;7.38;;
82952;SDS011;74888;40.196;44.560;2023-12-29T03:59:10;10.38;;;3.95;;
82952;SDS011;74888;40.196;44.560;2023-12-29T04:01:35;17.65;;;7.18;;
82952;SDS011;74888;40.196;44.560;2023-12-29T04:04:01;14.05;;;6.25;;
82952;SDS011;74888;40.196;44.560;2023-12-29T04:06:30;11.48;;;4.88;;
82952;SDS011;74888;40.196;44.560;2023-12-29T04:08:58;13.55;;;5.32;;
82952;SDS011;74888;40.196;44.560;2023-12-29T04:11:24;10.02;;;3.75;;
82952;SDS011;74888;40.196;44.560;2023-12-29T04:13:49;7.32;;;2.83;;
82952;SDS011;74888;40.196;44.560;2023-12-29T04:16:21;10.73;;;2.30;;
82952;SDS011;74888;40.196;44.560;2023-12-29T04:18:46;8.35;;;2.78;;
82952;SDS011;74888;40.196;44.560;2023-12-29T04:21:15;10.23;;;3.08;;
82952;SDS011;74888;40.196;44.560;2023-12-29T04:23:41;18.08;;;5.28;;
82952;SDS011;74888;40.196;44.560;2023-12-29T04:26:08;12.40;;;5.35;;
82952;SDS011;74888;40.196;44.560;2023-12-29T04:28:35;15.07;;;4.93;;
82952;SDS011;74888;40.196;44.560;2023-12-29T04:31:01;21.55;;;6.68;;
82952;SDS011;74888;40.196;44.560;2023-12-29T04:33:29;21.10;;;6.40;;
82952;SDS011;74888;40.196;44.560;2023-12-29T04:36:02;20.50;;;6.90;;
82952;SDS011;74888;40.196;44.560;2023-12-29T04:40:57;24.92;;;8.13;;
82952;SDS011;74888;40.196;44.560;2023-12-29T04:43:24;18.02;;;8.75;;
82952;SDS011;74888;40.196;44.560;2023-12-29T04:45:51;23.40;;;8.20;;
82952;SDS011;74888;40.196;44.560;2023-12-29T04:48:17;22.23;;;7.57;;
82952;SDS011;74888;40.196;44.560;2023-12-29T04:50:43;19.00;;;8.13;;
82952;SDS011;74888;40.196;44.560;2023-12-29T04:53:08;19.27;;;7.60;;
82952;SDS011;74888;40.196;44.560;2023-12-29T04:55:34;21.08;;;8.70;;
82952;SDS011;74888;40.196;44.560;2023-12-29T04:58:00;21.45;;;8.57;;
82952;SDS011;74888;40.196;44.560;2023-12-29T05:00:25;20.50;;;7.82;;
82952;SDS011;74888;40.196;44.560;2023-12-29T05:02:51;21.13;;;8.45;;
82952;SDS011;74888;40.196;44.560;2023-12-29T05:05:16;27.25;;;7.22;;
82952;SDS011;74888;40.196;44.560;2023-12-29T05:07:42;24.27;;;7.68;;
82952;SDS011;74888;40.196;44.560;2023-12-29T05:10:10;19.27;;;5.22;;
82952;SDS011;74888;40.196;44.560;2023-12-29T05:12:35;12.48;;;4.13;;
82952;SDS011;74888;40.196;44.560;2023-12-29T05:15:01;18.75;;;4.50;;
82952;SDS011;74888;40.196;44.560;2023-12-29T05:17:27;10.60;;;2.80;;
82952;SDS011;74888;40.196;44.560;2023-12-29T05:19:55;10.52;;;2.47;;
82952;SDS011;74888;40.196;44.560;2023-12-29T05:22:21;9.48;;;2.05;;
82952;SDS011;74888;40.196;44.560;2023-12-29T05:27:23;7.30;;;2.50;;
82952;SDS011;74888;40.196;44.560;2023-12-29T05:29:52;13.57;;;2.50;;
82952;SDS011;74888;40.196;44.560;2023-12-29T05:32:18;12.13;;;2.97;;
82952;SDS011;74888;40.196;44.560;2023-12-29T05:34:43;16.23;;;2.40;;
82952;SDS011;74888;40.196;44.560;2023-12-29T05:37:09;8.55;;;2.50;;
82952;SDS011;74888;40.196;44.560;2023-12-29T05:39:35;9.00;;;2.33;;
82952;SDS011;74888;40.196;44.560;2023-12-29T05:42:05;6.18;;;2.13;;
82952;SDS011;74888;40.196;44.560;2023-12-29T05:44:31;16.00;;;4.00;;
82952;SDS011;74888;40.196;44.560;2023-12-29T05:46:59;11.43;;;2.30;;
82952;SDS011;74888;40.196;44.560;2023-12-29T05:49:26;10.40;;;1.90;;
82952;SDS011;74888;40.196;44.560;2023-12-29T05:51:54;9.30;;;1.42;;
82952;SDS011;74888;40.196;44.560;2023-12-29T05:54:19;5.78;;;1.50;;
82952;SDS011;74888;40.196;44.560;2023-12-29T05:56:45;12.15;;;2.10;;
82952;SDS011;74888;40.196;44.560;2023-12-29T05:59:13;15.75;;;3.17;;
82952;SDS011;74888;40.196;44.560;2023-12-29T06:01:52;10.57;;;2.25;;
82952;SDS011;74888;40.196;44.560;2023-12-29T06:04:18;8.40;;;3.35;;
82952;SDS011;74888;40.196;44.560;2023-12-29T06:06:43;17.38;;;4.93;;
82952;SDS011;74888;40.196;44.560;2023-12-29T06:09:11;11.93;;;4.22;;
82952;SDS011;74888;40.196;44.560;2023-12-29T06:11:38;18.95;;;4.90;;
82952;SDS011;74888;40.196;44.560;2023-12-29T06:14:04;15.70;;;5.43;;
82952;SDS011;74888;40.196;44.560;2023-12-29T06:16:30;13.48;;;5.28;;
82952;SDS011;74888;40.196;44.560;2023-12-29T06:21:24;21.10;;;5.45;;
82952;SDS011;74888;40.196;44.560;2023-12-29T06:23:49;18.60;;;6.68;;
82952;SDS011;74888;40.196;44.560;2023-12-29T06:26:21;22.77;;;6.43;;
82952;SDS011;74888;40.196;44.560;2023-12-29T06:28:48;18.85;;;5.93;;
82952;SDS011;74888;40.196;44.560;2023-12-29T06:31:13;17.58;;;5.30;;
82952;SDS011;74888;40.196;44.560;2023-12-29T06:33:54;15.63;;;6.00;;
82952;SDS011;74888;40.196;44.560;2023-12-29T06:36:20;22.83;;;7.45;;
82952;SDS011;74888;40.196;44.560;2023-12-29T06:38:47;19.45;;;7.63;;
82952;SDS011;74888;40.196;44.560;2023-12-29T06:41:13;18.63;;;6.28;;
82952;SDS011;74888;40.196;44.560;2023-12-29T06:43:39;15.88;;;6.78;;
82952;SDS011;74888;40.196;44.560;2023-12-29T06:46:06;20.23;;;7.05;;
82952;SDS011;74888;40.196;44.560;2023-12-29T06:48:36;24.80;;;7.90;;
82952;SDS011;74888;40.196;44.560;2023-12-29T06:51:01;19.13;;;6.95;;
82952;SDS011;74888;40.196;44.560;2023-12-29T06:55:56;22.88;;;7.47;;
82952;SDS011;74888;40.196;44.560;2023-12-29T06:58:24;19.15;;;6.80;;
82952;SDS011;74888;40.196;44.560;2023-12-29T07:00:51;20.20;;;7.70;;
82952;SDS011;74888;40.196;44.560;2023-12-29T07:03:16;25.25;;;10.05;;
82952;SDS011;74888;40.196;44.560;2023-12-29T07:05:42;26.77;;;7.45;;
82952;SDS011;74888;40.196;44.560;2023-12-29T07:08:08;12.13;;;4.35;;
82952;SDS011;74888;40.196;44.560;2023-12-29T07:13:02;17.45;;;3.55;;
82952;SDS011;74888;40.196;44.560;2023-12-29T07:15:34;13.50;;;3.88;;
82952;SDS011;74888;40.196;44.560;2023-12-29T07:17:59;14.95;;;4.57;;
82952;SDS011;74888;40.196;44.560;2023-12-29T07:20:25;14.93;;;4.30;;
82952;SDS011;74888;40.196;44.560;2023-12-29T07:22:51;16.70;;;4.60;;
82952;SDS011;74888;40.196;44.560;2023-12-29T07:25:18;12.63;;;3.20;;
82952;SDS011;74888;40.196;44.560;2023-12-29T07:27:49;14.05;;;3.45;;
82952;SDS011;74888;40.196;44.560;2023-12-29T07:30:16;10.07;;;2.50;;
82952;SDS011;74888;40.196;44.560;2023-12-29T07:32:43;10.63;;;2.42;;
82952;SDS011;74888;40.196;44.560;2023-12-29T07:35:08;11.40;;;3.30;;
82952;SDS011;74888;40.196;44.560;2023-12-29T07:37:34;10.73;;;2.58;;
82952;SDS011;74888;40.196;44.560;2023-12-29T07:40:00;10.52;;;2.95;;
82952;SDS011;74888;40.196;44.560;2023-12-29T07:42:26;7.13;;;2.17;;
82952;SDS011;74888;40.196;44.560;2023-12-29T07:44:51;14.80;;;2.65;;
82952;SDS011;74888;40.196;44.560;2023-12-29T07:47:20;14.02;;;2.72;;
82952;SDS011;74888;40.196;44.560;2023-12-29T07:49:48;10.25;;;2.78;;
82952;SDS011;74888;40.196;44.560;2023-12-29T07:52:13;4.82;;;2.03;;
82952;SDS011;74888;40.196;44.560;2023-12-29T07:54:40;5.70;;;2.22;;
82952;SDS011;74888;40.196;44.560;2023-12-29T07:57:06;13.07;;;2.60;;
82952;SDS011;74888;40.196;44.560;2023-12-29T07:59:36;23.67;;;3.35;;
82952;SDS011;74888;40.196;44.560;2023-12-29T08:02:02;16.50;;;2.50;;
82952;SDS011;74888;40.196;44.560;2023-12-29T08:04:28;17.00;;;4.72;;
82952;SDS011;74888;40.196;44.560;2023-12-29T08:06:53;8.75;;;2.45;;
82952;SDS011;74888;40.196;44.560;2023-12-29T08:09:19;11.98;;;3.55;;
82952;SDS011;74888;40.196;44.560;2023-12-29T08:11:45;16.95;;;2.95;;
82952;SDS011;74888;40.196;44.560;2023-12-29T08:14:11;9.65;;;2.90;;
82952;SDS011;74888;40.196;44.560;2023-12-29T08:16:40;8.68;;;3.17;;
82952;SDS011;74888;40.196;44.560;2023-12-29T08:19:06;16.23;;;4.90;;
82952;SDS011;74888;40.196;44.560;2023-12-29T08:24:03;8.13;;;3.00;;
82952;SDS011;74888;40.196;44.560;2023-12-29T08:26:29;15.23;;;3.95;;
82952;SDS011;74888;40.196;44.560;2023-12-29T08:29:01;11.18;;;3.95;;
82952;SDS011;74888;40.196;44.560;2023-12-29T08:31:26;9.32;;;4.18;;
82952;SDS011;74888;40.196;44.560;2023-12-29T08:33:54;15.52;;;4.72;;
82952;SDS011;74888;40.196;44.560;2023-12-29T08:36:26;19.98;;;4.78;;
82952;SDS011;74888;40.196;44.560;2023-12-29T08:38:53;22.65;;;4.72;;
82952;SDS011;74888;40.196;44.560;2023-12-29T08:41:25;29.70;;;4.78;;
82952;SDS011;74888;40.196;44.560;2023-12-29T08:43:52;34.25;;;4.90;;
82952;SDS011;74888;40.196;44.560;2023-12-29T08:46:20;34.20;;;5.55;;
82952;SDS011;74888;40.196;44.560;2023-12-29T08:48:46;31.77;;;9.10;;
82952;SDS011;74888;40.196;44.560;2023-12-29T08:51:12;23.05;;;8.27;;
82952;SDS011;74888;40.196;44.560;2023-12-29T08:53:38;23.67;;;9.02;;
82952;SDS011;74888;40.196;44.560;2023-12-29T08:56:04;20.02;;;7.00;;
82952;SDS011;74888;40.196;44.560;2023-12-29T09:01:00;21.75;;;6.88;;
82952;SDS011;74888;40.196;44.560;2023-12-29T09:03:25;15.75;;;3.40;;
82952;SDS011;74888;40.196;44.560;2023-12-29T09:05:51;10.82;;;3.47;;
82952;SDS011;74888;40.196;44.560;2023-12-29T09:08:17;15.63;;;5.93;;
82952;SDS011;74888;40.196;44.560;2023-12-29T09:10:42;22.17;;;6.70;;
82952;SDS011;74888;40.196;44.560;2023-12-29T09:13:08;13.70;;;4.97;;
82952;SDS011;74888;40.196;44.560;2023-12-29T09:15:34;13.70;;;5.15;;
82952;SDS011;74888;40.196;44.560;2023-12-29T09:18:06;13.65;;;6.30;;
82952;SDS011;74888;40.196;44.560;2023-12-29T09:20:32;21.70;;;7.60;;
82952;SDS011;74888;40.196;44.560;2023-12-29T09:22:57;15.88;;;6.50;;
82952;SDS011;74888;40.196;44.560;2023-12-29T09:25:23;20.25;;;7.25;;
82952;SDS011;74888;40.196;44.560;2023-12-29T09:27:50;13.50;;;6.18;;
82952;SDS011;74888;40.196;44.560;2023-12-29T09:30:17;25.08;;;7.88;;
82952;SDS011;74888;40.196;44.560;2023-12-29T09:32:44;13.60;;;6.53;;
82952;SDS011;74888;40.196;44.560;2023-12-29T09:35:10;14.32;;;6.90;;
82952;SDS011;74888;40.196;44.560;2023-12-29T09:37:36;11.38;;;5.13;;
82952;SDS011;74888;40.196;44.560;2023-12-29T09:40:01;16.02;;;5.80;;
82952;SDS011;74888;40.196;44.560;2023-12-29T09:42:28;15.60;;;5.47;;
82952;SDS011;74888;40.196;44.560;2023-12-29T09:44:55;16.63;;;4.90;;
82952;SDS011;74888;40.196;44.560;2023-12-29T09:47:23;15.27;;;5.07;;
82952;SDS011;74888;40.196;44.560;2023-12-29T09:49:50;19.27;;;5.07;;
82952;SDS011;74888;40.196;44.560;2023-12-29T09:52:20;10.93;;;4.68;;
82952;SDS011;74888;40.196;44.560;2023-12-29T09:54:51;14.20;;;4.95;;
82952;SDS011;74888;40.196;44.560;2023-12-29T09:57:17;16.38;;;5.57;;
82952;SDS011;74888;40.196;44.560;2023-12-29T09:59:44;12.73;;;4.78;;
82952;SDS011;74888;40.196;44.560;2023-12-29T10:04:42;13.35;;;4.53;;
82952;SDS011;74888;40.196;44.560;2023-12-29T10:07:12;12.50;;;4.60;;
82952;SDS011;74888;40.196;44.560;2023-12-29T10:09:42;13.40;;;5.30;;
82952;SDS011;74888;40.196;44.560;2023-12-29T10:12:10;12.07;;;4.32;;
82952;SDS011;74888;40.196;44.560;2023-12-29T10:14:41;11.77;;;4.72;;
82952;SDS011;74888;40.196;44.560;2023-12-29T10:20:35;14.15;;;5.00;;
82952;SDS011;74888;40.196;44.560;2023-12-29T10:26:07;16.40;;;5.93;;
82952;SDS011;74888;40.196;44.560;2023-12-29T10:28:36;17.27;;;5.95;;
82952;SDS011;74888;40.196;44.560;2023-12-29T10:31:02;10.13;;;4.28;;
82952;SDS011;74888;40.196;44.560;2023-12-29T10:33:31;16.77;;;4.78;;
82952;SDS011;74888;40.196;44.560;2023-12-29T10:36:01;22.83;;;5.57;;
82952;SDS011;74888;40.196;44.560;2023-12-29T10:38:29;15.15;;;5.47;;
82952;SDS011;74888;40.196;44.560;2023-12-29T10:41:09;21.20;;;4.57;;
82952;SDS011;74888;40.196;44.560;2023-12-29T10:43:37;13.90;;;4.70;;
82952;SDS011;74888;40.196;44.560;2023-12-29T11:03:23;12.77;;;5.38;;
82952;SDS011;74888;40.196;44.560;2023-12-29T11:05:49;11.05;;;5.25;;
82952;SDS011;74888;40.196;44.560;2023-12-29T11:08:20;12.10;;;5.10;;
82952;SDS011;74888;40.196;44.560;2023-12-29T11:10:49;11.55;;;5.03;;
82952;SDS011;74888;40.196;44.560;2023-12-29T11:13:16;14.27;;;4.90;;
82952;SDS011;74888;40.196;44.560;2023-12-29T11:15:42;14.18;;;5.78;;
82952;SDS011;74888;40.196;44.560;2023-12-29T11:18:16;14.05;;;5.45;;
82952;SDS011;74888;40.196;44.560;2023-12-29T11:20:44;10.88;;;4.45;;
82952;SDS011;74888;40.196;44.560;2023-12-29T11:23:11;14.50;;;5.55;;
82952;SDS011;74888;40.196;44.560;2023-12-29T11:25:40;14.07;;;5.22;;
82952;SDS011;74888;40.196;44.560;2023-12-29T11:28:10;14.75;;;5.82;;
82952;SDS011;74888;40.196;44.560;2023-12-29T11:30:39;13.70;;;5.25;;
82952;SDS011;74888;40.196;44.560;2023-12-29T11:35:53;16.85;;;5.53;;
82952;SDS011;74888;40.196;44.560;2023-12-29T11:41:11;15.43;;;5.68;;
82952;SDS011;74888;40.196;44.560;2023-12-29T11:43:44;16.80;;;7.90;;
82952;SDS011;74888;40.196;44.560;2023-12-29T11:48:58;14.00;;;5.90;;
82952;SDS011;74888;40.196;44.560;2023-12-29T11:51:29;14.18;;;5.55;;
82952;SDS011;74888;40.196;44.560;2023-12-29T11:53:57;15.90;;;5.72;;
82952;SDS011;74888;40.196;44.560;2023-12-29T11:56:23;11.45;;;4.72;;
82952;SDS011;74888;40.196;44.560;2023-12-29T11:58:49;18.48;;;6.30;;
82952;SDS011;74888;40.196;44.560;2023-12-29T12:01:32;10.05;;;4.90;;
82952;SDS011;74888;40.196;44.560;2023-12-29T12:04:01;14.98;;;5.75;;
82952;SDS011;74888;40.196;44.560;2023-12-29T12:06:36;13.60;;;5.28;;
82952;SDS011;74888;40.196;44.560;2023-12-29T12:09:24;12.57;;;5.55;;
82952;SDS011;74888;40.196;44.560;2023-12-29T12:11:50;15.88;;;6.05;;
82952;SDS011;74888;40.196;44.560;2023-12-29T12:17:26;15.55;;;5.60;;
82952;SDS011;74888;40.196;44.560;2023-12-29T12:19:56;21.90;;;6.00;;
82952;SDS011;74888;40.196;44.560;2023-12-29T12:22:23;14.30;;;6.05;;
82952;SDS011;74888;40.196;44.560;2023-12-29T12:24:57;16.70;;;6.30;;
82952;SDS011;74888;40.196;44.560;2023-12-29T12:27:24;18.00;;;6.18;;
82952;SDS011;74888;40.196;44.560;2023-12-29T12:30:00;15.23;;;5.53;;
82952;SDS011;74888;40.196;44.560;2023-12-29T12:32:26;13.50;;;5.22;;
82952;SDS011;74888;40.196;44.560;2023-12-29T12:34:52;12.80;;;4.90;;
82952;SDS011;74888;40.196;44.560;2023-12-29T12:37:22;20.08;;;5.32;;
82952;SDS011;74888;40.196;44.560;2023-12-29T12:39:49;20.17;;;5.57;;
82952;SDS011;74888;40.196;44.560;2023-12-29T13:03:03;19.60;;;6.65;;
82952;SDS011;74888;40.196;44.560;2023-12-29T13:05:29;17.45;;;6.80;;
82952;SDS011;74888;40.196;44.560;2023-12-29T13:07:55;19.33;;;6.53;;
82952;SDS011;74888;40.196;44.560;2023-12-29T13:10:23;17.05;;;7.25;;
82952;SDS011;74888;40.196;44.560;2023-12-29T13:12:52;15.57;;;6.05;;
82952;SDS011;74888;40.196;44.560;2023-12-29T13:15:19;43.17;;;13.77;;
82952;SDS011;74888;40.196;44.560;2023-12-29T13:17:55;68.45;;;20.65;;
82952;SDS011;74888;40.196;44.560;2023-12-29T13:20:20;23.48;;;9.13;;
82952;SDS011;74888;40.196;44.560;2023-12-29T13:22:47;20.20;;;7.63;;
82952;SDS011;74888;40.196;44.560;2023-12-29T13:25:23;20.40;;;8.35;;
82952;SDS011;74888;40.196;44.560;2023-12-29T13:27:50;20.17;;;7.05;;
82952;SDS011;74888;40.196;44.560;2023-12-29T13:30:18;14.30;;;6.38;;
82952;SDS011;74888;40.196;44.560;2023-12-29T13:32:45;20.02;;;6.10;;
82952;SDS011;74888;40.196;44.560;2023-12-29T13:38:18;21.83;;;6.88;;
82952;SDS011;74888;40.196;44.560;2023-12-29T13:43:29;19.48;;;6.65;;
82952;SDS011;74888;40.196;44.560;2023-12-29T13:45:58;21.27;;;7.93;;
82952;SDS011;74888;40.196;44.560;2023-12-29T13:48:25;19.38;;;7.82;;
82952;SDS011;74888;40.196;44.560;2023-12-29T13:50:52;16.73;;;7.70;;
82952;SDS011;74888;40.196;44.560;2023-12-29T13:53:18;21.02;;;7.55;;
82952;SDS011;74888;40.196;44.560;2023-12-29T13:55:45;18.65;;;8.00;;
82952;SDS011;74888;40.196;44.560;2023-12-29T13:58:11;22.48;;;8.10;;
82952;SDS011;74888;40.196;44.560;2023-12-29T14:00:37;19.77;;;7.85;;
82952;SDS011;74888;40.196;44.560;2023-12-29T14:03:23;16.88;;;5.93;;
82952;SDS011;74888;40.196;44.560;2023-12-29T14:05:59;22.23;;;7.70;;
82952;SDS011;74888;40.196;44.560;2023-12-29T14:08:26;17.67;;;7.75;;
82952;SDS011;74888;40.196;44.560;2023-12-29T14:10:59;22.00;;;7.30;;
82952;SDS011;74888;40.196;44.560;2023-12-29T14:13:29;23.23;;;8.40;;
82952;SDS011;74888;40.196;44.560;2023-12-29T14:15:57;23.38;;;8.65;;
82952;SDS011;74888;40.196;44.560;2023-12-29T14:20:58;31.52;;;9.73;;
82952;SDS011;74888;40.196;44.560;2023-12-29T14:23:24;25.38;;;10.48;;
82952;SDS011;74888;40.196;44.560;2023-12-29T14:25:50;25.80;;;10.07;;
82952;SDS011;74888;40.196;44.560;2023-12-29T14:28:20;39.58;;;11.00;;
82952;SDS011;74888;40.196;44.560;2023-12-29T14:33:14;42.53;;;12.98;;
82952;SDS011;74888;40.196;44.560;2023-12-29T14:35:40;33.70;;;12.20;;
82952;SDS011;74888;40.196;44.560;2023-12-29T14:38:06;33.88;;;12.93;;
82952;SDS011;74888;40.196;44.560;2023-12-29T14:40:32;61.08;;;23.35;;
82952;SDS011;74888;40.196;44.560;2023-12-29T14:43:00;55.08;;;21.95;;
82952;SDS011;74888;40.196;44.560;2023-12-29T14:45:25;58.00;;;18.90;;
82952;SDS011;74888;40.196;44.560;2023-12-29T14:47:54;52.97;;;19.98;;
82952;SDS011;74888;40.196;44.560;2023-12-29T14:50:21;57.30;;;17.83;;
82952;SDS011;74888;40.196;44.560;2023-12-29T14:52:49;46.35;;;17.88;;
82952;SDS011;74888;40.196;44.560;2023-12-29T14:55:15;42.55;;;15.60;;
82952;SDS011;74888;40.196;44.560;2023-12-29T14:57:41;43.58;;;16.05;;
82952;SDS011;74888;40.196;44.560;2023-12-29T15:00:10;52.15;;;18.38;;
82952;SDS011;74888;40.196;44.560;2023-12-29T15:02:36;47.30;;;17.25;;
82952;SDS011;74888;40.196;44.560;2023-12-29T15:05:01;57.20;;;21.48;;
82952;SDS011;74888;40.196;44.560;2023-12-29T15:07:27;58.95;;;21.92;;
82952;SDS011;74888;40.196;44.560;2023-12-29T15:09:55;59.67;;;22.13;;
82952;SDS011;74888;40.196;44.560;2023-12-29T15:12:23;51.13;;;20.67;;
82952;SDS011;74888;40.196;44.560;2023-12-29T15:14:49;50.30;;;19.05;;
82952;SDS011;74888;40.196;44.560;2023-12-29T15:17:15;44.85;;;18.45;;
82952;SDS011;74888;40.196;44.560;2023-12-29T15:19:40;43.83;;;17.38;;
82952;SDS011;74888;40.196;44.560;2023-12-29T15:22:06;41.65;;;16.75;;
82952;SDS011;74888;40.196;44.560;2023-12-29T15:24:31;51.13;;;18.58;;
82952;SDS011;74888;40.196;44.560;2023-12-29T15:26:57;49.30;;;18.00;;
82952;SDS011;74888;40.196;44.560;2023-12-29T15:29:23;40.78;;;17.67;;
82952;SDS011;74888;40.196;44.560;2023-12-29T15:31:49;44.22;;;19.42;;
82952;SDS011;74888;40.196;44.560;2023-12-29T15:34:14;50.70;;;20.42;;
82952;SDS011;74888;40.196;44.560;2023-12-29T15:36:40;53.25;;;21.08;;
82952;SDS011;74888;40.196;44.560;2023-12-29T15:39:06;67.80;;;25.55;;
82952;SDS011;74888;40.196;44.560;2023-12-29T15:41:33;61.40;;;23.15;;
82952;SDS011;74888;40.196;44.560;2023-12-29T15:43:59;55.58;;;20.52;;
82952;SDS011;74888;40.196;44.560;2023-12-29T15:46:25;54.42;;;19.25;;
82952;SDS011;74888;40.196;44.560;2023-12-29T15:48:51;51.33;;;20.88;;
82952;SDS011;74888;40.196;44.560;2023-12-29T15:51:22;45.90;;;18.85;;
82952;SDS011;74888;40.196;44.560;2023-12-29T15:53:48;48.10;;;18.52;;
82952;SDS011;74888;40.196;44.560;2023-12-29T15:56:17;45.88;;;17.90;;
82952;SDS011;74888;40.196;44.560;2023-12-29T15:58:45;43.55;;;16.33;;
82952;SDS011;74888;40.196;44.560;2023-12-29T16:01:19;43.20;;;15.43;;
82952;SDS011;74888;40.196;44.560;2023-12-29T16:03:54;43.17;;;15.57;;
82952;SDS011;74888;40.196;44.560;2023-12-29T16:06:21;41.20;;;14.23;;
82952;SDS011;74888;40.196;44.560;2023-12-29T16:08:47;38.50;;;14.93;;
82952;SDS011;74888;40.196;44.560;2023-12-29T16:11:20;35.95;;;14.05;;
82952;SDS011;74888;40.196;44.560;2023-12-29T16:13:46;43.50;;;16.05;;
82952;SDS011;74888;40.196;44.560;2023-12-29T16:16:12;44.95;;;16.63;;